createdAt,value
2023-05-03T00:01:39.284Z,100.00
2023-05-03T00:04:06.243Z,100.00
2023-05-03T00:06:32.918Z,100.00
2023-05-03T00:09:00.632Z,100.00
2023-05-03T00:11:28.493Z,100.00
2023-05-03T00:13:55.088Z,100.00
2023-05-03T00:16:21.775Z,100.00
2023-05-03T00:18:49.309Z,100.00
2023-05-03T00:21:17.007Z,100.00
2023-05-03T00:23:43.597Z,100.00
2023-05-03T00:26:11.261Z,100.00
2023-05-03T00:28:37.865Z,100.00
2023-05-03T00:31:09.547Z,100.00
2023-05-03T00:33:37.331Z,100.00
2023-05-03T00:36:11.252Z,100.00
2023-05-03T00:38:39.362Z,100.00
2023-05-03T00:41:06.968Z,100.00
2023-05-03T00:43:36.321Z,100.00
2023-05-03T00:46:15.890Z,100.00
2023-05-03T00:48:45.312Z,100.00
2023-05-03T00:51:14.880Z,100.00
2023-05-03T00:53:44.773Z,100.00
2023-05-03T00:56:12.173Z,100.00
2023-05-03T00:58:40.631Z,100.00
2023-05-03T01:01:07.868Z,100.00
2023-05-03T01:03:39.729Z,100.00
2023-05-03T01:06:25.278Z,100.00
2023-05-03T01:09:19.540Z,100.00
2023-05-03T01:12:04.223Z,100.00
2023-05-03T01:14:47.610Z,100.00
2023-05-03T01:17:15.659Z,100.00
2023-05-03T01:19:51.452Z,100.00
2023-05-03T01:22:26.466Z,100.00
2023-05-03T01:25:07.722Z,100.00
2023-05-03T01:27:34.531Z,100.00
2023-05-03T01:30:01.366Z,100.00
2023-05-03T01:32:37.722Z,100.00
2023-05-03T01:35:18.113Z,100.00
2023-05-03T01:37:45.099Z,100.00
2023-05-03T01:40:16.996Z,100.00
2023-05-03T01:42:43.987Z,100.00
2023-05-03T01:45:13.240Z,100.00
2023-05-03T01:47:39.853Z,100.00
2023-05-03T01:50:06.558Z,100.00
2023-05-03T01:52:33.714Z,100.00
2023-05-03T01:55:00.416Z,100.00
2023-05-03T01:57:26.999Z,100.00
2023-05-03T01:59:54.585Z,100.00
2023-05-03T02:02:21.201Z,100.00
2023-05-03T02:04:48.440Z,100.00
2023-05-03T02:07:15.101Z,100.00
2023-05-03T02:09:41.744Z,100.00
2023-05-03T02:12:09.455Z,100.00
2023-05-03T02:14:36.066Z,100.00
2023-05-03T02:17:03.321Z,100.00
2023-05-03T02:19:30.174Z,100.00
2023-05-03T02:21:57.102Z,100.00
2023-05-03T02:24:24.873Z,100.00
2023-05-03T02:26:52.569Z,100.00
2023-05-03T02:29:19.158Z,100.00
2023-05-03T02:31:45.821Z,100.00
2023-05-03T02:34:12.620Z,100.00
2023-05-03T02:36:39.454Z,100.00
2023-05-03T02:39:07.358Z,100.00
2023-05-03T02:41:33.995Z,100.00
2023-05-03T02:44:01.082Z,100.00
2023-05-03T02:46:27.794Z,100.00
2023-05-03T02:48:54.513Z,100.00
2023-05-03T02:51:21.243Z,100.00
2023-05-03T02:53:48.228Z,100.00
2023-05-03T02:56:14.823Z,100.00
2023-05-03T02:58:41.436Z,100.00
2023-05-03T03:01:09.249Z,100.00
2023-05-03T03:03:36.530Z,100.00
2023-05-03T03:06:03.719Z,100.00
2023-05-03T03:08:30.413Z,100.00
2023-05-03T03:10:57.033Z,100.00
2023-05-03T03:13:24.046Z,100.00
2023-05-03T03:15:52.028Z,100.00
2023-05-03T03:18:19.740Z,100.00
2023-05-03T03:20:47.684Z,100.00
2023-05-03T03:23:14.658Z,100.00
2023-05-03T03:25:42.148Z,100.00
2023-05-03T03:28:08.817Z,100.00
2023-05-03T03:30:35.442Z,100.00
2023-05-03T03:33:02.140Z,100.00
2023-05-03T03:35:29.117Z,100.00
2023-05-03T03:37:55.799Z,100.00
2023-05-03T03:40:22.452Z,100.00
2023-05-03T03:42:50.266Z,100.00
2023-05-03T03:45:18.228Z,100.00
2023-05-03T03:47:45.983Z,100.00
2023-05-03T03:50:13.919Z,100.00
2023-05-03T03:52:40.701Z,100.00
2023-05-03T03:55:07.673Z,100.00
2023-05-03T03:57:34.316Z,100.00
2023-05-03T04:00:01.312Z,100.00
2023-05-03T04:02:28.286Z,100.00
2023-05-03T04:04:55.655Z,100.00
2023-05-03T04:07:22.316Z,100.00
2023-05-03T04:09:48.994Z,100.00
2023-05-03T04:12:17.280Z,100.00
2023-05-03T04:14:43.929Z,100.00
2023-05-03T04:17:12.060Z,100.00
2023-05-03T04:19:39.990Z,100.00
2023-05-03T04:22:08.259Z,100.00
2023-05-03T04:24:35.868Z,100.00
2023-05-03T04:27:05.822Z,100.00
2023-05-03T04:29:32.452Z,100.00
2023-05-03T04:32:01.261Z,100.00
2023-05-03T04:34:30.272Z,100.00
2023-05-03T04:36:57.102Z,100.00
2023-05-03T04:39:24.154Z,100.00
2023-05-03T04:41:50.746Z,100.00
2023-05-03T04:44:18.948Z,100.00
2023-05-03T04:46:48.751Z,100.00
2023-05-03T04:49:17.846Z,100.00
2023-05-03T04:51:45.675Z,100.00
2023-05-03T04:54:12.276Z,100.00
2023-05-03T04:56:38.900Z,100.00
2023-05-03T04:59:05.682Z,100.00
2023-05-03T05:01:32.872Z,100.00
2023-05-03T05:04:00.598Z,100.00
2023-05-03T05:06:29.084Z,100.00
2023-05-03T05:08:57.383Z,100.00
2023-05-03T05:11:24.145Z,100.00
2023-05-03T05:13:50.813Z,100.00
2023-05-03T05:16:17.797Z,100.00
2023-05-03T05:18:45.673Z,100.00
2023-05-03T05:21:15.583Z,100.00
2023-05-03T05:23:42.318Z,100.00
2023-05-03T05:26:08.930Z,100.00
2023-05-03T05:28:36.114Z,100.00
2023-05-03T05:31:02.728Z,100.00
2023-05-03T05:33:29.385Z,100.00
2023-05-03T05:35:56.151Z,100.00
2023-05-03T05:38:22.789Z,100.00
2023-05-03T05:40:49.501Z,100.00
2023-05-03T05:43:16.124Z,100.00
2023-05-03T05:45:42.728Z,100.00
2023-05-03T05:48:10.768Z,100.00
2023-05-03T05:50:38.779Z,100.00
2023-05-03T05:53:06.722Z,100.00
2023-05-03T05:55:33.329Z,100.00
2023-05-03T05:58:01.062Z,100.00
2023-05-03T06:00:27.674Z,100.00
2023-05-03T06:02:54.488Z,100.00
2023-05-03T06:05:21.643Z,100.00
2023-05-03T06:07:48.928Z,100.00
2023-05-03T06:10:16.051Z,100.00
2023-05-03T06:12:42.689Z,100.00
2023-05-03T06:15:09.780Z,100.00
2023-05-03T06:17:36.560Z,100.00
2023-05-03T06:20:04.885Z,100.00
2023-05-03T06:22:31.878Z,100.00
2023-05-03T06:24:59.787Z,100.00
2023-05-03T06:27:26.463Z,100.00
2023-05-03T06:29:54.399Z,100.00
2023-05-03T06:32:21.904Z,100.00
2023-05-03T06:34:49.853Z,100.00
2023-05-03T06:37:17.418Z,100.00
2023-05-03T06:39:44.057Z,100.00
2023-05-03T06:42:10.865Z,100.00
2023-05-03T06:44:37.462Z,100.00
2023-05-03T06:47:04.266Z,100.00
2023-05-03T06:49:31.614Z,100.00
2023-05-03T06:51:58.301Z,100.00
2023-05-03T06:54:24.936Z,100.00
2023-05-03T06:56:51.567Z,100.00
2023-05-03T06:59:19.649Z,100.00
2023-05-03T07:01:47.100Z,100.00
2023-05-03T07:04:14.720Z,100.00
2023-05-03T07:06:55.344Z,100.00
2023-05-03T07:09:35.446Z,100.00
2023-05-03T07:12:08.755Z,100.00
2023-05-03T07:14:35.703Z,100.00
2023-05-03T07:17:02.506Z,100.00
2023-05-03T07:19:30.173Z,100.00
2023-05-03T07:21:56.874Z,100.00
2023-05-03T07:24:25.787Z,100.00
2023-05-03T07:26:54.798Z,100.00
2023-05-03T07:29:21.643Z,100.00
2023-05-03T07:31:51.412Z,100.00
2023-05-03T07:34:19.486Z,100.00
2023-05-03T07:36:46.121Z,100.00
2023-05-03T07:39:12.724Z,100.00
2023-05-03T07:41:39.526Z,100.00
2023-05-03T07:44:07.261Z,100.00
2023-05-03T07:46:35.233Z,100.00
2023-05-03T07:49:05.370Z,100.00
2023-05-03T07:51:39.001Z,100.00
2023-05-03T07:54:07.563Z,100.00
2023-05-03T07:56:34.311Z,100.00
2023-05-03T07:59:09.317Z,100.00
2023-05-03T08:01:36.760Z,100.00
2023-05-03T08:04:04.867Z,100.00
2023-05-03T08:06:32.844Z,100.00
2023-05-03T08:09:00.874Z,100.00
2023-05-03T08:11:30.216Z,100.00
2023-05-03T08:13:57.081Z,100.00
2023-05-03T08:16:25.272Z,100.00
2023-05-03T08:18:53.328Z,100.00
2023-05-03T08:21:21.416Z,100.00
2023-05-03T08:23:49.816Z,100.00
2023-05-03T08:26:17.364Z,100.00
2023-05-03T08:28:45.186Z,100.00
2023-05-03T08:31:12.125Z,100.00
2023-05-03T08:33:38.756Z,100.00
2023-05-03T08:36:06.043Z,100.00
2023-05-03T08:38:34.160Z,100.00
2023-05-03T08:41:08.787Z,100.00
2023-05-03T08:43:40.477Z,100.00
2023-05-03T08:46:12.393Z,100.00
2023-05-03T08:48:39.498Z,100.00
2023-05-03T08:51:10.104Z,100.00
2023-05-03T08:53:36.996Z,100.00
2023-05-03T08:56:08.647Z,100.00
2023-05-03T08:58:38.148Z,100.00
2023-05-03T09:01:06.545Z,100.00
2023-05-03T09:03:37.691Z,100.00
2023-05-03T09:06:20.499Z,100.00
2023-05-03T09:08:47.182Z,100.00
2023-05-03T09:11:30.979Z,98.99
2023-05-03T09:14:14.010Z,100.00
2023-05-03T09:16:42.660Z,100.00
2023-05-03T09:19:11.810Z,99.26
2023-05-03T09:21:41.217Z,100.00
2023-05-03T09:24:21.599Z,100.00
2023-05-03T09:26:52.359Z,100.00
2023-05-03T09:29:34.395Z,100.00
2023-05-03T09:32:03.148Z,100.00
2023-05-03T09:34:29.922Z,97.57
2023-05-03T09:36:56.640Z,95.77
2023-05-03T09:39:23.503Z,89.97
2023-05-03T09:41:51.861Z,90.39
2023-05-03T09:44:19.932Z,88.66
2023-05-03T09:47:07.343Z,88.00
2023-05-03T09:49:36.942Z,88.90
2023-05-03T09:52:03.919Z,87.08
2023-05-03T09:54:36.107Z,87.52
2023-05-03T09:57:04.902Z,87.74
2023-05-03T09:59:32.890Z,86.32
2023-05-03T10:02:03.250Z,86.72
2023-05-03T10:04:40.824Z,87.63
2023-05-03T10:07:13.330Z,86.29
2023-05-03T10:09:44.410Z,85.94
2023-05-03T10:12:13.260Z,84.13
2023-05-03T10:14:42.644Z,83.71
2023-05-03T10:17:45.627Z,84.34
2023-05-03T10:20:29.159Z,81.23
2023-05-03T10:23:04.882Z,81.55
2023-05-03T10:25:32.926Z,82.44
2023-05-03T10:28:03.820Z,82.73
2023-05-03T10:30:34.974Z,81.82
2023-05-03T10:33:13.843Z,81.48
2023-05-03T10:35:42.230Z,77.99
2023-05-03T10:38:22.130Z,79.59
2023-05-03T10:40:48.986Z,79.94
2023-05-03T10:43:33.902Z,80.06
2023-05-03T10:46:06.007Z,78.03
2023-05-03T10:48:33.824Z,77.95
2023-05-03T10:51:37.461Z,76.91
2023-05-03T10:54:04.399Z,78.78
2023-05-03T10:56:31.040Z,77.84
2023-05-03T10:58:59.876Z,76.26
2023-05-03T11:01:28.037Z,77.10
2023-05-03T11:04:05.275Z,77.30
2023-05-03T11:06:37.254Z,76.13
2023-05-03T11:09:06.770Z,76.28
2023-05-03T11:11:37.069Z,77.97
2023-05-03T11:14:04.043Z,78.86
2023-05-03T11:16:31.354Z,78.89
2023-05-03T11:18:59.914Z,77.27
2023-05-03T11:21:26.646Z,74.24
2023-05-03T11:23:54.670Z,74.00
2023-05-03T11:26:26.336Z,75.95
2023-05-03T11:28:54.120Z,75.38
2023-05-03T11:31:22.381Z,74.76
2023-05-03T11:33:49.838Z,75.26
2023-05-03T11:36:16.476Z,76.02
2023-05-03T11:38:43.134Z,74.41
2023-05-03T11:41:18.188Z,75.45
2023-05-03T11:43:46.989Z,75.04
2023-05-03T11:46:18.242Z,74.30
2023-05-03T11:48:45.851Z,73.79
2023-05-03T11:51:14.909Z,72.55
2023-05-03T11:53:43.962Z,69.67
2023-05-03T11:56:15.502Z,68.88
2023-05-03T11:58:52.755Z,67.91
2023-05-03T12:01:23.810Z,69.31
2023-05-03T12:03:59.646Z,69.08
2023-05-03T12:06:28.879Z,68.64
2023-05-03T12:08:56.676Z,65.38
2023-05-03T12:11:26.907Z,65.24
2023-05-03T12:14:00.320Z,64.75
2023-05-03T12:16:27.980Z,63.98
2023-05-03T12:19:02.349Z,63.36
2023-05-03T12:24:20.404Z,61.06
2023-05-03T12:26:48.912Z,60.42
2023-05-03T12:29:17.954Z,61.18
2023-05-03T12:31:49.149Z,62.44
2023-05-03T12:34:31.752Z,63.16
2023-05-03T12:37:04.643Z,57.23
2023-05-03T12:39:32.986Z,59.88
2023-05-03T12:44:34.999Z,58.77
2023-05-03T12:47:02.929Z,57.62
2023-05-03T12:49:30.089Z,58.84
2023-05-03T12:52:34.518Z,56.68
2023-05-03T12:54:49.643Z,56.46
2023-05-03T12:57:22.902Z,56.04
2023-05-03T12:59:56.799Z,56.25
2023-05-03T13:05:00.015Z,51.36
2023-05-03T13:07:32.197Z,50.72
2023-05-03T13:12:31.026Z,47.77
2023-05-03T13:14:58.055Z,46.20
2023-05-03T13:17:25.076Z,46.58
2023-05-03T13:19:54.541Z,45.84
2023-05-03T13:22:22.227Z,45.65
2023-05-03T13:24:49.449Z,46.09
2023-05-03T13:27:17.733Z,47.50
2023-05-03T13:29:46.161Z,47.21
2023-05-03T13:32:14.406Z,49.09
2023-05-03T13:34:41.017Z,46.92
2023-05-03T13:37:08.756Z,46.36
2023-05-03T13:39:36.739Z,48.31
2023-05-03T13:42:03.507Z,46.69
2023-05-03T13:44:30.243Z,47.19
2023-05-03T13:46:57.194Z,46.75
2023-05-03T13:49:25.158Z,46.31
2023-05-03T13:51:51.764Z,46.25
2023-05-03T13:54:19.733Z,45.03
2023-05-03T13:56:46.389Z,45.94
2023-05-03T13:59:16.379Z,46.24
2023-05-03T14:01:43.542Z,45.90
2023-05-03T14:04:11.598Z,46.81
2023-05-03T14:06:41.243Z,47.63
2023-05-03T14:09:08.931Z,48.25
2023-05-03T14:11:35.798Z,47.14
2023-05-03T14:14:03.264Z,46.58
2023-05-03T14:16:40.856Z,45.52
2023-05-03T14:19:11.844Z,46.55
2023-05-03T14:21:38.806Z,45.13
2023-05-03T14:24:07.762Z,44.47
2023-05-03T14:26:34.444Z,47.14
2023-05-03T14:29:01.559Z,45.97
2023-05-03T14:31:29.809Z,45.91
2023-05-03T14:33:58.226Z,46.38
2023-05-03T14:36:34.744Z,45.54
2023-05-03T14:39:04.685Z,44.22
2023-05-03T14:41:33.321Z,44.57
2023-05-03T14:44:00.213Z,44.37
2023-05-03T14:46:27.040Z,43.94
2023-05-03T14:48:53.694Z,44.60
2023-05-03T14:51:21.682Z,43.33
2023-05-03T14:53:49.703Z,45.48
2023-05-03T14:56:16.332Z,43.57
2023-05-03T14:58:44.256Z,44.07
2023-05-03T15:01:20.473Z,44.29
2023-05-03T15:03:47.754Z,45.49
2023-05-03T15:06:14.587Z,46.57
2023-05-03T15:08:41.369Z,45.06
2023-05-03T15:11:07.988Z,44.88
2023-05-03T15:13:35.309Z,45.37
2023-05-03T15:16:02.252Z,44.96
2023-05-03T15:18:28.944Z,44.40
2023-05-03T15:20:56.343Z,45.03
2023-05-03T15:23:23.229Z,44.98
2023-05-03T15:25:49.833Z,44.75
2023-05-03T15:28:16.693Z,45.18
2023-05-03T15:30:43.296Z,44.69
2023-05-03T15:33:12.101Z,45.21
2023-05-03T15:35:40.362Z,44.43
2023-05-03T15:38:07.874Z,45.00
2023-05-03T15:40:34.559Z,43.99
2023-05-03T15:43:01.759Z,43.75
2023-05-03T15:45:28.524Z,44.53
2023-05-03T15:47:58.496Z,45.04
2023-05-03T15:50:25.254Z,44.74
2023-05-03T15:52:51.879Z,44.85
2023-05-03T15:55:20.740Z,44.13
2023-05-03T15:57:47.382Z,44.83
2023-05-03T16:00:18.176Z,45.40
2023-05-03T16:02:44.824Z,45.86
2023-05-03T16:05:12.087Z,45.09
2023-05-03T16:07:38.838Z,46.89
2023-05-03T16:10:06.523Z,47.46
2023-05-03T16:12:33.386Z,46.98
2023-05-03T16:15:00.161Z,46.86
2023-05-03T16:17:27.043Z,46.83
2023-05-03T16:19:53.762Z,46.29
2023-05-03T16:22:20.392Z,45.96
2023-05-03T16:24:47.321Z,45.57
2023-05-03T16:27:14.102Z,45.26
2023-05-03T16:29:40.859Z,45.43
2023-05-03T16:32:09.946Z,45.84
2023-05-03T16:34:37.987Z,46.48
2023-05-03T16:37:04.807Z,46.15
2023-05-03T16:39:33.484Z,47.22
2023-05-03T16:42:00.114Z,46.10
2023-05-03T16:44:26.886Z,46.74
2023-05-03T16:46:53.579Z,46.13
2023-05-03T16:49:20.469Z,46.14
2023-05-03T16:51:48.571Z,46.43
2023-05-03T16:54:16.831Z,46.29
2023-05-03T16:56:45.780Z,47.53
2023-05-03T16:59:12.429Z,47.44
2023-05-03T17:01:39.286Z,46.57
2023-05-03T17:04:07.992Z,46.01
2023-05-03T17:06:34.706Z,46.56
2023-05-03T17:09:01.493Z,46.35
2023-05-03T17:11:29.576Z,46.74
2023-05-03T17:13:56.454Z,47.42
2023-05-03T17:16:23.492Z,46.91
2023-05-03T17:18:50.355Z,46.57
2023-05-03T17:21:18.737Z,48.35
2023-05-03T17:23:46.221Z,47.20
2023-05-03T17:26:13.216Z,47.34
2023-05-03T17:28:40.621Z,47.46
2023-05-03T17:31:07.590Z,47.71
2023-05-03T17:33:36.425Z,47.36
2023-05-03T17:36:05.041Z,47.32
2023-05-03T17:38:33.554Z,47.06
2023-05-03T17:41:04.965Z,49.74
2023-05-03T17:43:32.092Z,49.19
2023-05-03T17:46:12.607Z,49.86
2023-05-03T17:48:44.629Z,49.46
2023-05-03T17:51:15.616Z,49.79
2023-05-03T17:53:44.257Z,50.23
2023-05-03T17:56:16.036Z,49.81
2023-05-03T17:58:45.330Z,51.58
2023-05-03T18:01:13.400Z,51.81
2023-05-03T18:03:44.164Z,52.10
2023-05-03T18:06:13.295Z,51.23
2023-05-03T18:08:41.444Z,51.22
2023-05-03T18:11:08.600Z,51.38
2023-05-03T18:13:37.885Z,51.74
2023-05-03T18:16:08.311Z,51.55
2023-05-03T18:18:35.200Z,52.77
2023-05-03T18:21:04.032Z,53.35
2023-05-03T18:23:31.831Z,54.17
2023-05-03T18:25:58.466Z,55.22
2023-05-03T18:28:25.422Z,54.86
2023-05-03T18:30:58.120Z,55.02
2023-05-03T18:33:24.818Z,56.17
2023-05-03T18:35:52.772Z,56.14
2023-05-03T18:38:22.654Z,56.68
2023-05-03T18:40:50.052Z,58.54
2023-05-03T18:43:18.565Z,58.14
2023-05-03T18:45:45.279Z,60.46
2023-05-03T18:48:12.094Z,64.44
2023-05-03T18:50:39.416Z,64.13
2023-05-03T18:53:06.633Z,69.93
2023-05-03T18:55:33.409Z,73.25
2023-05-03T18:58:00.675Z,71.76
2023-05-03T19:00:27.475Z,78.93
2023-05-03T19:02:54.147Z,82.36
2023-05-03T19:05:21.573Z,79.48
2023-05-03T19:07:48.863Z,90.64
2023-05-03T19:10:16.587Z,92.38
2023-05-03T19:12:44.646Z,89.04
2023-05-03T19:15:12.206Z,90.83
2023-05-03T19:17:41.885Z,86.99
2023-05-03T19:20:10.435Z,85.34
2023-05-03T19:22:37.303Z,88.31
2023-05-03T19:25:04.972Z,89.04
2023-05-03T19:27:33.155Z,87.00
2023-05-03T19:29:59.895Z,91.43
2023-05-03T19:32:27.870Z,92.21
2023-05-03T19:34:54.533Z,92.18
2023-05-03T19:37:22.300Z,94.19
2023-05-03T19:39:48.900Z,92.49
2023-05-03T19:42:15.920Z,98.02
2023-05-03T19:44:42.631Z,100.00
2023-05-03T19:47:09.248Z,100.00
2023-05-03T19:49:35.806Z,100.00
2023-05-03T19:52:04.600Z,100.00
2023-05-03T19:54:32.935Z,100.00
2023-05-03T19:57:08.688Z,100.00
2023-05-03T19:59:36.697Z,100.00
2023-05-03T20:02:03.459Z,100.00
2023-05-03T20:04:30.614Z,100.00
2023-05-03T20:06:57.868Z,100.00
2023-05-03T20:09:24.480Z,100.00
2023-05-03T20:11:56.462Z,100.00
2023-05-03T20:14:24.189Z,100.00
2023-05-03T20:16:50.828Z,100.00
2023-05-03T20:19:17.746Z,100.00
2023-05-03T20:21:44.793Z,100.00
2023-05-03T20:24:11.746Z,100.00
2023-05-03T20:26:38.633Z,100.00
2023-05-03T20:29:05.665Z,100.00
2023-05-03T20:31:32.874Z,100.00
2023-05-03T20:34:00.458Z,100.00
2023-05-03T20:36:28.044Z,100.00
2023-05-03T20:38:55.587Z,100.00
2023-05-03T20:41:22.896Z,100.00
2023-05-03T20:43:52.491Z,100.00
2023-05-03T20:46:19.248Z,100.00
2023-05-03T20:48:47.141Z,100.00
2023-05-03T20:51:14.819Z,100.00
2023-05-03T20:53:41.530Z,100.00
2023-05-03T20:56:08.442Z,100.00
2023-05-03T20:58:35.270Z,100.00
2023-05-03T21:01:07.836Z,100.00
2023-05-03T21:03:35.567Z,100.00
2023-05-03T21:06:02.896Z,100.00
2023-05-03T21:08:29.884Z,100.00
2023-05-03T21:10:56.489Z,100.00
2023-05-03T21:13:24.489Z,100.00
2023-05-03T21:15:51.212Z,100.00
2023-05-03T21:18:19.199Z,100.00
2023-05-03T21:20:47.034Z,100.00
2023-05-03T21:23:13.749Z,100.00
2023-05-03T21:25:40.440Z,100.00
2023-05-03T21:28:07.099Z,100.00
2023-05-03T21:30:33.801Z,100.00
2023-05-03T21:33:00.429Z,100.00
2023-05-03T21:35:27.207Z,100.00
2023-05-03T21:37:53.909Z,100.00
2023-05-03T21:40:23.158Z,100.00
2023-05-03T21:42:52.366Z,100.00
2023-05-03T21:45:20.000Z,100.00
2023-05-03T21:47:46.913Z,100.00
2023-05-03T21:50:14.068Z,100.00
2023-05-03T21:52:41.080Z,100.00
2023-05-03T21:55:08.580Z,100.00
2023-05-03T21:57:35.242Z,100.00
2023-05-03T22:00:02.548Z,100.00
2023-05-03T22:02:29.499Z,100.00
2023-05-03T22:04:57.158Z,100.00
2023-05-03T22:07:23.826Z,100.00
2023-05-03T22:09:50.437Z,100.00
2023-05-03T22:14:47.397Z,100.00
2023-05-03T22:17:15.303Z,100.00
2023-05-03T22:19:42.001Z,100.00
2023-05-03T22:22:09.009Z,100.00
2023-05-03T22:24:35.771Z,100.00
2023-05-03T22:27:02.952Z,100.00
2023-05-03T22:29:30.951Z,100.00
2023-05-03T22:31:57.825Z,100.00
2023-05-03T22:34:24.529Z,100.00
2023-05-03T22:36:52.545Z,100.00
2023-05-03T22:39:19.108Z,100.00
2023-05-03T22:41:45.906Z,100.00
2023-05-03T22:44:12.652Z,100.00
2023-05-03T22:46:39.847Z,100.00
2023-05-03T22:49:07.405Z,100.00
2023-05-03T22:51:35.499Z,100.00
2023-05-03T22:54:02.467Z,100.00
2023-05-03T22:56:30.248Z,100.00
2023-05-03T22:58:58.305Z,100.00
2023-05-03T23:01:26.593Z,100.00
2023-05-03T23:03:54.419Z,100.00
2023-05-03T23:06:21.208Z,100.00
2023-05-03T23:08:47.811Z,100.00
2023-05-03T23:11:15.780Z,100.00
2023-05-03T23:13:43.580Z,100.00
2023-05-03T23:16:11.801Z,100.00
2023-05-03T23:18:38.531Z,100.00
2023-05-03T23:21:05.603Z,100.00
2023-05-03T23:23:32.217Z,100.00
2023-05-03T23:25:58.911Z,100.00
2023-05-03T23:28:26.203Z,100.00
2023-05-03T23:30:54.467Z,100.00
2023-05-03T23:33:21.454Z,100.00
2023-05-03T23:35:48.839Z,100.00
2023-05-03T23:38:15.863Z,100.00
2023-05-03T23:40:42.554Z,100.00
2023-05-03T23:43:10.308Z,100.00
2023-05-03T23:45:38.229Z,100.00
2023-05-03T23:48:06.357Z,100.00
2023-05-03T23:50:32.987Z,100.00
2023-05-03T23:53:01.056Z,100.00
2023-05-03T23:55:27.831Z,100.00
2023-05-03T23:57:55.765Z,100.00
